sensor_id;sensor_type;location;lat;lon;timestamp;P1;durP1;ratioP1;P2;durP2;ratioP2
38338;SDS011;37117;50.050;19.924;2022-12-18T00:01:44;86.20;;;41.10;;
38338;SDS011;37117;50.050;19.924;2022-12-18T00:04:16;84.20;;;35.40;;
38338;SDS011;37117;50.050;19.924;2022-12-18T00:06:48;83.50;;;37.40;;
38338;SDS011;37117;50.050;19.924;2022-12-18T00:09:19;83.20;;;37.60;;
38338;SDS011;37117;50.050;19.924;2022-12-18T00:11:53;72.40;;;32.60;;
38338;SDS011;37117;50.050;19.924;2022-12-18T00:14:24;79.90;;;33.80;;
38338;SDS011;37117;50.050;19.924;2022-12-18T00:16:56;79.90;;;32.70;;
38338;SDS011;37117;50.050;19.924;2022-12-18T00:21:59;73.40;;;36.30;;
38338;SDS011;37117;50.050;19.924;2022-12-18T00:24:29;72.10;;;34.50;;
38338;SDS011;37117;50.050;19.924;2022-12-18T00:27:02;73.60;;;31.70;;
38338;SDS011;37117;50.050;19.924;2022-12-18T00:29:32;81.80;;;35.50;;
38338;SDS011;37117;50.050;19.924;2022-12-18T00:32:04;75.20;;;31.60;;
38338;SDS011;37117;50.050;19.924;2022-12-18T00:34:34;71.90;;;33.90;;
38338;SDS011;37117;50.050;19.924;2022-12-18T00:37:05;74.60;;;31.90;;
38338;SDS011;37117;50.050;19.924;2022-12-18T00:39:36;80.20;;;37.60;;
38338;SDS011;37117;50.050;19.924;2022-12-18T00:42:07;77.40;;;32.30;;
38338;SDS011;37117;50.050;19.924;2022-12-18T00:44:55;80.10;;;33.50;;
38338;SDS011;37117;50.050;19.924;2022-12-18T00:47:27;78.60;;;33.10;;
38338;SDS011;37117;50.050;19.924;2022-12-18T00:49:57;74.60;;;33.20;;
38338;SDS011;37117;50.050;19.924;2022-12-18T00:52:28;75.30;;;33.00;;
38338;SDS011;37117;50.050;19.924;2022-12-18T00:54:59;84.70;;;35.40;;
38338;SDS011;37117;50.050;19.924;2022-12-18T00:57:35;82.90;;;38.50;;
38338;SDS011;37117;50.050;19.924;2022-12-18T01:00:06;71.50;;;32.60;;
38338;SDS011;37117;50.050;19.924;2022-12-18T01:02:38;71.80;;;32.10;;
38338;SDS011;37117;50.050;19.924;2022-12-18T01:05:09;79.70;;;32.40;;
38338;SDS011;37117;50.050;19.924;2022-12-18T01:07:40;67.10;;;30.50;;
38338;SDS011;37117;50.050;19.924;2022-12-18T01:10:11;72.80;;;31.00;;
38338;SDS011;37117;50.050;19.924;2022-12-18T01:12:43;66.90;;;34.30;;
38338;SDS011;37117;50.050;19.924;2022-12-18T01:15:14;79.30;;;35.20;;
38338;SDS011;37117;50.050;19.924;2022-12-18T01:17:45;78.20;;;37.30;;
38338;SDS011;37117;50.050;19.924;2022-12-18T01:20:15;73.10;;;34.10;;
38338;SDS011;37117;50.050;19.924;2022-12-18T01:22:47;68.00;;;33.90;;
38338;SDS011;37117;50.050;19.924;2022-12-18T01:25:17;68.10;;;30.90;;
38338;SDS011;37117;50.050;19.924;2022-12-18T01:27:49;78.30;;;34.00;;
38338;SDS011;37117;50.050;19.924;2022-12-18T01:30:19;74.80;;;34.80;;
38338;SDS011;37117;50.050;19.924;2022-12-18T01:32:50;79.20;;;35.90;;
38338;SDS011;37117;50.050;19.924;2022-12-18T01:35:21;81.00;;;34.30;;
38338;SDS011;37117;50.050;19.924;2022-12-18T01:37:55;67.50;;;31.90;;
38338;SDS011;37117;50.050;19.924;2022-12-18T01:42:56;74.80;;;32.40;;
38338;SDS011;37117;50.050;19.924;2022-12-18T01:45:28;74.60;;;34.80;;
38338;SDS011;37117;50.050;19.924;2022-12-18T01:48:00;72.40;;;34.50;;
38338;SDS011;37117;50.050;19.924;2022-12-18T01:50:32;77.40;;;37.30;;
38338;SDS011;37117;50.050;19.924;2022-12-18T01:53:05;83.60;;;32.40;;
38338;SDS011;37117;50.050;19.924;2022-12-18T01:55:36;67.20;;;30.70;;
38338;SDS011;37117;50.050;19.924;2022-12-18T01:58:09;70.30;;;31.20;;
38338;SDS011;37117;50.050;19.924;2022-12-18T02:00:39;72.30;;;36.10;;
38338;SDS011;37117;50.050;19.924;2022-12-18T02:03:11;70.00;;;30.80;;
38338;SDS011;37117;50.050;19.924;2022-12-18T02:05:44;70.20;;;31.80;;
38338;SDS011;37117;50.050;19.924;2022-12-18T02:08:19;64.30;;;32.90;;
38338;SDS011;37117;50.050;19.924;2022-12-18T02:10:53;70.30;;;32.50;;
38338;SDS011;37117;50.050;19.924;2022-12-18T02:13:28;68.10;;;29.50;;
38338;SDS011;37117;50.050;19.924;2022-12-18T02:16:03;65.50;;;30.50;;
38338;SDS011;37117;50.050;19.924;2022-12-18T02:18:38;73.90;;;32.50;;
38338;SDS011;37117;50.050;19.924;2022-12-18T02:21:13;64.50;;;32.30;;
38338;SDS011;37117;50.050;19.924;2022-12-18T02:23:50;70.70;;;34.30;;
38338;SDS011;37117;50.050;19.924;2022-12-18T02:26:26;70.50;;;32.30;;
38338;SDS011;37117;50.050;19.924;2022-12-18T02:28:59;71.10;;;33.90;;
38338;SDS011;37117;50.050;19.924;2022-12-18T02:31:36;72.00;;;33.30;;
38338;SDS011;37117;50.050;19.924;2022-12-18T02:34:09;73.10;;;33.90;;
38338;SDS011;37117;50.050;19.924;2022-12-18T02:36:40;66.00;;;32.20;;
38338;SDS011;37117;50.050;19.924;2022-12-18T02:39:13;66.40;;;30.90;;
38338;SDS011;37117;50.050;19.924;2022-12-18T02:41:53;70.60;;;31.90;;
38338;SDS011;37117;50.050;19.924;2022-12-18T02:44:25;64.80;;;31.30;;
38338;SDS011;37117;50.050;19.924;2022-12-18T02:46:56;73.90;;;34.80;;
38338;SDS011;37117;50.050;19.924;2022-12-18T02:49:29;70.70;;;32.10;;
38338;SDS011;37117;50.050;19.924;2022-12-18T02:52:04;66.00;;;27.80;;
38338;SDS011;37117;50.050;19.924;2022-12-18T02:54:43;67.20;;;30.40;;
38338;SDS011;37117;50.050;19.924;2022-12-18T02:57:16;65.90;;;30.90;;
38338;SDS011;37117;50.050;19.924;2022-12-18T02:59:51;71.90;;;33.40;;
38338;SDS011;37117;50.050;19.924;2022-12-18T03:02:25;73.90;;;35.30;;
38338;SDS011;37117;50.050;19.924;2022-12-18T03:04:59;69.40;;;30.20;;
38338;SDS011;37117;50.050;19.924;2022-12-18T03:07:34;67.90;;;32.20;;
38338;SDS011;37117;50.050;19.924;2022-12-18T03:10:09;77.50;;;34.80;;
38338;SDS011;37117;50.050;19.924;2022-12-18T03:12:42;68.20;;;33.80;;
38338;SDS011;37117;50.050;19.924;2022-12-18T03:15:16;69.50;;;32.00;;
38338;SDS011;37117;50.050;19.924;2022-12-18T03:17:51;70.80;;;33.10;;
38338;SDS011;37117;50.050;19.924;2022-12-18T03:20:28;71.90;;;34.00;;
38338;SDS011;37117;50.050;19.924;2022-12-18T03:23:02;63.80;;;31.60;;
38338;SDS011;37117;50.050;19.924;2022-12-18T03:25:35;65.30;;;31.30;;
38338;SDS011;37117;50.050;19.924;2022-12-18T03:28:07;63.60;;;28.80;;
38338;SDS011;37117;50.050;19.924;2022-12-18T03:30:41;68.80;;;31.10;;
38338;SDS011;37117;50.050;19.924;2022-12-18T03:33:13;69.40;;;31.40;;
38338;SDS011;37117;50.050;19.924;2022-12-18T03:35:47;67.30;;;31.40;;
38338;SDS011;37117;50.050;19.924;2022-12-18T03:38:18;72.80;;;34.60;;
38338;SDS011;37117;50.050;19.924;2022-12-18T03:40:56;66.90;;;29.60;;
38338;SDS011;37117;50.050;19.924;2022-12-18T03:43:34;60.10;;;26.80;;
38338;SDS011;37117;50.050;19.924;2022-12-18T03:46:07;66.60;;;29.40;;
38338;SDS011;37117;50.050;19.924;2022-12-18T03:48:41;67.60;;;32.10;;
38338;SDS011;37117;50.050;19.924;2022-12-18T03:51:16;73.20;;;32.90;;
38338;SDS011;37117;50.050;19.924;2022-12-18T03:53:51;64.10;;;29.60;;
38338;SDS011;37117;50.050;19.924;2022-12-18T03:56:26;68.10;;;33.30;;
38338;SDS011;37117;50.050;19.924;2022-12-18T03:59:00;64.50;;;29.60;;
38338;SDS011;37117;50.050;19.924;2022-12-18T04:01:33;72.10;;;31.80;;
38338;SDS011;37117;50.050;19.924;2022-12-18T04:04:04;66.20;;;32.80;;
38338;SDS011;37117;50.050;19.924;2022-12-18T04:06:38;67.00;;;31.60;;
38338;SDS011;37117;50.050;19.924;2022-12-18T04:09:09;74.10;;;31.40;;
38338;SDS011;37117;50.050;19.924;2022-12-18T04:14:14;62.30;;;32.30;;
38338;SDS011;37117;50.050;19.924;2022-12-18T04:16:49;76.70;;;32.70;;
38338;SDS011;37117;50.050;19.924;2022-12-18T04:19:22;68.90;;;30.50;;
38338;SDS011;37117;50.050;19.924;2022-12-18T04:21:54;70.90;;;30.50;;
38338;SDS011;37117;50.050;19.924;2022-12-18T04:24:24;66.50;;;31.40;;
38338;SDS011;37117;50.050;19.924;2022-12-18T04:27:04;67.40;;;33.60;;
38338;SDS011;37117;50.050;19.924;2022-12-18T04:29:41;71.80;;;33.80;;
38338;SDS011;37117;50.050;19.924;2022-12-18T04:32:12;62.10;;;31.10;;
38338;SDS011;37117;50.050;19.924;2022-12-18T04:34:44;69.90;;;32.80;;
38338;SDS011;37117;50.050;19.924;2022-12-18T04:37:14;69.90;;;30.30;;
38338;SDS011;37117;50.050;19.924;2022-12-18T04:39:45;61.40;;;29.10;;
38338;SDS011;37117;50.050;19.924;2022-12-18T04:42:21;70.80;;;30.80;;
38338;SDS011;37117;50.050;19.924;2022-12-18T04:44:52;61.90;;;28.30;;
38338;SDS011;37117;50.050;19.924;2022-12-18T04:47:23;66.40;;;28.50;;
38338;SDS011;37117;50.050;19.924;2022-12-18T04:49:53;68.70;;;30.40;;
38338;SDS011;37117;50.050;19.924;2022-12-18T04:52:24;64.30;;;30.90;;
38338;SDS011;37117;50.050;19.924;2022-12-18T04:54:55;70.20;;;30.90;;
38338;SDS011;37117;50.050;19.924;2022-12-18T04:57:26;65.20;;;30.60;;
38338;SDS011;37117;50.050;19.924;2022-12-18T04:59:56;58.50;;;27.80;;
38338;SDS011;37117;50.050;19.924;2022-12-18T05:02:27;66.30;;;28.70;;
38338;SDS011;37117;50.050;19.924;2022-12-18T05:04:57;75.40;;;31.90;;
38338;SDS011;37117;50.050;19.924;2022-12-18T05:07:29;57.20;;;27.00;;
38338;SDS011;37117;50.050;19.924;2022-12-18T05:09:59;62.70;;;29.30;;
38338;SDS011;37117;50.050;19.924;2022-12-18T05:12:30;67.00;;;30.10;;
38338;SDS011;37117;50.050;19.924;2022-12-18T05:15:03;65.60;;;30.80;;
38338;SDS011;37117;50.050;19.924;2022-12-18T05:17:34;60.20;;;28.30;;
38338;SDS011;37117;50.050;19.924;2022-12-18T05:20:06;67.20;;;28.90;;
38338;SDS011;37117;50.050;19.924;2022-12-18T05:22:37;66.30;;;31.30;;
38338;SDS011;37117;50.050;19.924;2022-12-18T05:25:08;63.10;;;28.10;;
38338;SDS011;37117;50.050;19.924;2022-12-18T05:27:39;67.40;;;30.00;;
38338;SDS011;37117;50.050;19.924;2022-12-18T05:30:11;67.30;;;28.00;;
38338;SDS011;37117;50.050;19.924;2022-12-18T05:32:43;68.30;;;27.90;;
38338;SDS011;37117;50.050;19.924;2022-12-18T05:35:13;65.20;;;28.80;;
38338;SDS011;37117;50.050;19.924;2022-12-18T05:37:45;59.50;;;29.70;;
38338;SDS011;37117;50.050;19.924;2022-12-18T05:40:15;64.40;;;30.10;;
38338;SDS011;37117;50.050;19.924;2022-12-18T05:42:47;61.70;;;27.80;;
38338;SDS011;37117;50.050;19.924;2022-12-18T05:45:18;62.10;;;28.40;;
38338;SDS011;37117;50.050;19.924;2022-12-18T05:47:49;61.30;;;29.50;;
38338;SDS011;37117;50.050;19.924;2022-12-18T05:50:20;64.40;;;29.00;;
38338;SDS011;37117;50.050;19.924;2022-12-18T05:52:51;69.80;;;31.40;;
38338;SDS011;37117;50.050;19.924;2022-12-18T05:55:22;60.90;;;29.00;;
38338;SDS011;37117;50.050;19.924;2022-12-18T05:57:53;64.60;;;30.00;;
38338;SDS011;37117;50.050;19.924;2022-12-18T06:00:24;73.00;;;32.90;;
38338;SDS011;37117;50.050;19.924;2022-12-18T06:02:55;78.30;;;33.30;;
38338;SDS011;37117;50.050;19.924;2022-12-18T06:05:26;72.20;;;32.50;;
38338;SDS011;37117;50.050;19.924;2022-12-18T06:07:57;68.70;;;34.90;;
38338;SDS011;37117;50.050;19.924;2022-12-18T06:10:27;65.00;;;34.20;;
38338;SDS011;37117;50.050;19.924;2022-12-18T06:12:58;66.40;;;33.40;;
38338;SDS011;37117;50.050;19.924;2022-12-18T06:15:29;66.10;;;30.60;;
38338;SDS011;37117;50.050;19.924;2022-12-18T06:18:01;76.00;;;31.70;;
38338;SDS011;37117;50.050;19.924;2022-12-18T06:20:31;70.60;;;30.80;;
38338;SDS011;37117;50.050;19.924;2022-12-18T06:23:03;74.50;;;34.00;;
38338;SDS011;37117;50.050;19.924;2022-12-18T06:25:33;67.70;;;29.30;;
38338;SDS011;37117;50.050;19.924;2022-12-18T06:28:04;68.70;;;31.10;;
38338;SDS011;37117;50.050;19.924;2022-12-18T06:30:34;80.40;;;32.50;;
38338;SDS011;37117;50.050;19.924;2022-12-18T06:33:05;67.60;;;31.70;;
38338;SDS011;37117;50.050;19.924;2022-12-18T06:35:36;77.70;;;29.80;;
38338;SDS011;37117;50.050;19.924;2022-12-18T06:38:07;69.10;;;29.90;;
38338;SDS011;37117;50.050;19.924;2022-12-18T06:40:38;77.50;;;32.20;;
38338;SDS011;37117;50.050;19.924;2022-12-18T06:43:09;78.30;;;30.70;;
38338;SDS011;37117;50.050;19.924;2022-12-18T06:45:39;69.10;;;28.40;;
38338;SDS011;37117;50.050;19.924;2022-12-18T06:48:11;66.10;;;31.60;;
38338;SDS011;37117;50.050;19.924;2022-12-18T06:50:43;69.30;;;31.40;;
38338;SDS011;37117;50.050;19.924;2022-12-18T06:53:14;76.40;;;36.00;;
38338;SDS011;37117;50.050;19.924;2022-12-18T06:55:44;72.20;;;31.40;;
38338;SDS011;37117;50.050;19.924;2022-12-18T06:58:15;65.90;;;29.60;;
38338;SDS011;37117;50.050;19.924;2022-12-18T07:00:46;71.90;;;33.70;;
38338;SDS011;37117;50.050;19.924;2022-12-18T07:03:17;68.10;;;31.90;;
38338;SDS011;37117;50.050;19.924;2022-12-18T07:05:47;77.50;;;31.70;;
38338;SDS011;37117;50.050;19.924;2022-12-18T07:08:18;69.60;;;31.90;;
38338;SDS011;37117;50.050;19.924;2022-12-18T07:10:48;69.50;;;30.30;;
38338;SDS011;37117;50.050;19.924;2022-12-18T07:13:24;65.00;;;30.50;;
38338;SDS011;37117;50.050;19.924;2022-12-18T07:15:55;67.00;;;31.80;;
38338;SDS011;37117;50.050;19.924;2022-12-18T07:18:36;75.60;;;33.50;;
38338;SDS011;37117;50.050;19.924;2022-12-18T07:21:08;58.20;;;28.40;;
38338;SDS011;37117;50.050;19.924;2022-12-18T07:23:39;69.20;;;32.30;;
38338;SDS011;37117;50.050;19.924;2022-12-18T07:26:11;74.50;;;32.20;;
38338;SDS011;37117;50.050;19.924;2022-12-18T07:28:42;75.40;;;33.10;;
38338;SDS011;37117;50.050;19.924;2022-12-18T07:31:14;75.30;;;35.10;;
38338;SDS011;37117;50.050;19.924;2022-12-18T07:33:45;77.80;;;32.20;;
38338;SDS011;37117;50.050;19.924;2022-12-18T07:36:16;82.20;;;34.40;;
38338;SDS011;37117;50.050;19.924;2022-12-18T07:38:48;68.80;;;32.00;;
38338;SDS011;37117;50.050;19.924;2022-12-18T07:41:18;76.20;;;34.00;;
38338;SDS011;37117;50.050;19.924;2022-12-18T07:43:50;73.20;;;34.70;;
38338;SDS011;37117;50.050;19.924;2022-12-18T07:46:20;80.40;;;34.10;;
38338;SDS011;37117;50.050;19.924;2022-12-18T07:48:51;72.60;;;32.10;;
38338;SDS011;37117;50.050;19.924;2022-12-18T07:51:22;78.00;;;32.60;;
38338;SDS011;37117;50.050;19.924;2022-12-18T07:53:53;77.10;;;33.10;;
38338;SDS011;37117;50.050;19.924;2022-12-18T07:56:23;103.80;;;30.70;;
38338;SDS011;37117;50.050;19.924;2022-12-18T07:58:57;69.50;;;31.30;;
38338;SDS011;37117;50.050;19.924;2022-12-18T08:01:28;71.00;;;32.00;;
38338;SDS011;37117;50.050;19.924;2022-12-18T08:04:00;88.70;;;34.00;;
38338;SDS011;37117;50.050;19.924;2022-12-18T08:06:30;80.30;;;34.60;;
38338;SDS011;37117;50.050;19.924;2022-12-18T08:09:01;72.40;;;33.50;;
38338;SDS011;37117;50.050;19.924;2022-12-18T08:11:32;71.30;;;31.90;;
38338;SDS011;37117;50.050;19.924;2022-12-18T08:14:03;75.90;;;34.20;;
38338;SDS011;37117;50.050;19.924;2022-12-18T08:16:33;73.70;;;35.00;;
38338;SDS011;37117;50.050;19.924;2022-12-18T08:19:05;76.60;;;35.00;;
38338;SDS011;37117;50.050;19.924;2022-12-18T08:21:35;80.80;;;32.60;;
38338;SDS011;37117;50.050;19.924;2022-12-18T08:24:08;70.70;;;31.90;;
38338;SDS011;37117;50.050;19.924;2022-12-18T08:26:39;74.50;;;31.40;;
38338;SDS011;37117;50.050;19.924;2022-12-18T08:29:21;85.50;;;37.60;;
38338;SDS011;37117;50.050;19.924;2022-12-18T08:31:51;77.30;;;34.90;;
38338;SDS011;37117;50.050;19.924;2022-12-18T08:34:22;76.70;;;34.10;;
38338;SDS011;37117;50.050;19.924;2022-12-18T08:36:52;70.90;;;32.40;;
38338;SDS011;37117;50.050;19.924;2022-12-18T08:39:24;71.60;;;31.80;;
38338;SDS011;37117;50.050;19.924;2022-12-18T08:41:55;79.00;;;37.00;;
38338;SDS011;37117;50.050;19.924;2022-12-18T08:44:43;81.30;;;37.80;;
38338;SDS011;37117;50.050;19.924;2022-12-18T08:47:14;76.50;;;32.60;;
38338;SDS011;37117;50.050;19.924;2022-12-18T08:49:45;74.10;;;34.00;;
38338;SDS011;37117;50.050;19.924;2022-12-18T08:52:15;69.60;;;33.90;;
38338;SDS011;37117;50.050;19.924;2022-12-18T08:54:46;77.60;;;32.80;;
38338;SDS011;37117;50.050;19.924;2022-12-18T08:57:17;69.70;;;32.20;;
38338;SDS011;37117;50.050;19.924;2022-12-18T08:59:47;75.00;;;32.90;;
38338;SDS011;37117;50.050;19.924;2022-12-18T09:02:18;70.50;;;32.80;;
38338;SDS011;37117;50.050;19.924;2022-12-18T09:04:49;73.50;;;31.00;;
38338;SDS011;37117;50.050;19.924;2022-12-18T09:07:25;69.10;;;32.30;;
38338;SDS011;37117;50.050;19.924;2022-12-18T09:09:56;70.90;;;34.50;;
38338;SDS011;37117;50.050;19.924;2022-12-18T09:12:26;59.30;;;28.00;;
38338;SDS011;37117;50.050;19.924;2022-12-18T09:14:57;65.50;;;29.30;;
38338;SDS011;37117;50.050;19.924;2022-12-18T09:17:28;61.80;;;29.60;;
38338;SDS011;37117;50.050;19.924;2022-12-18T09:19:59;72.00;;;33.10;;
38338;SDS011;37117;50.050;19.924;2022-12-18T09:22:29;74.30;;;31.30;;
38338;SDS011;37117;50.050;19.924;2022-12-18T09:25:00;68.40;;;30.10;;
38338;SDS011;37117;50.050;19.924;2022-12-18T09:27:30;67.50;;;31.70;;
38338;SDS011;37117;50.050;19.924;2022-12-18T09:30:02;72.40;;;31.50;;
38338;SDS011;37117;50.050;19.924;2022-12-18T09:32:33;70.90;;;31.30;;
38338;SDS011;37117;50.050;19.924;2022-12-18T09:35:04;63.60;;;29.50;;
38338;SDS011;37117;50.050;19.924;2022-12-18T09:37:34;72.40;;;31.00;;
38338;SDS011;37117;50.050;19.924;2022-12-18T09:40:05;58.50;;;29.20;;
38338;SDS011;37117;50.050;19.924;2022-12-18T09:42:36;67.30;;;31.50;;
38338;SDS011;37117;50.050;19.924;2022-12-18T09:45:08;71.70;;;31.00;;
38338;SDS011;37117;50.050;19.924;2022-12-18T09:47:43;63.40;;;29.90;;
38338;SDS011;37117;50.050;19.924;2022-12-18T09:50:20;64.80;;;29.50;;
38338;SDS011;37117;50.050;19.924;2022-12-18T09:52:52;69.20;;;30.50;;
38338;SDS011;37117;50.050;19.924;2022-12-18T09:55:25;65.20;;;29.10;;
38338;SDS011;37117;50.050;19.924;2022-12-18T09:58:06;68.30;;;32.40;;
38338;SDS011;37117;50.050;19.924;2022-12-18T10:00:44;61.10;;;29.30;;
38338;SDS011;37117;50.050;19.924;2022-12-18T10:03:15;63.80;;;33.90;;
38338;SDS011;37117;50.050;19.924;2022-12-18T10:05:47;61.10;;;29.30;;
38338;SDS011;37117;50.050;19.924;2022-12-18T10:08:22;69.80;;;32.30;;
38338;SDS011;37117;50.050;19.924;2022-12-18T10:10:56;65.70;;;31.00;;
38338;SDS011;37117;50.050;19.924;2022-12-18T10:13:28;72.00;;;32.10;;
38338;SDS011;37117;50.050;19.924;2022-12-18T10:16:06;68.70;;;28.50;;
38338;SDS011;37117;50.050;19.924;2022-12-18T10:18:42;63.70;;;30.80;;
38338;SDS011;37117;50.050;19.924;2022-12-18T10:21:20;60.80;;;26.70;;
38338;SDS011;37117;50.050;19.924;2022-12-18T10:23:54;75.20;;;31.80;;
38338;SDS011;37117;50.050;19.924;2022-12-18T10:26:26;63.10;;;28.80;;
38338;SDS011;37117;50.050;19.924;2022-12-18T10:28:56;60.60;;;26.70;;
38338;SDS011;37117;50.050;19.924;2022-12-18T10:31:34;62.30;;;30.40;;
38338;SDS011;37117;50.050;19.924;2022-12-18T10:34:07;60.00;;;25.10;;
38338;SDS011;37117;50.050;19.924;2022-12-18T10:36:38;58.30;;;29.20;;
38338;SDS011;37117;50.050;19.924;2022-12-18T10:39:18;54.00;;;23.50;;
38338;SDS011;37117;50.050;19.924;2022-12-18T10:41:50;56.60;;;25.60;;
38338;SDS011;37117;50.050;19.924;2022-12-18T10:44:22;53.20;;;24.50;;
38338;SDS011;37117;50.050;19.924;2022-12-18T10:46:53;46.00;;;22.10;;
38338;SDS011;37117;50.050;19.924;2022-12-18T10:49:25;49.20;;;24.40;;
38338;SDS011;37117;50.050;19.924;2022-12-18T10:52:11;50.20;;;21.80;;
38338;SDS011;37117;50.050;19.924;2022-12-18T10:54:47;47.90;;;23.10;;
38338;SDS011;37117;50.050;19.924;2022-12-18T10:57:29;39.00;;;18.70;;
38338;SDS011;37117;50.050;19.924;2022-12-18T11:00:18;29.60;;;15.10;;
38338;SDS011;37117;50.050;19.924;2022-12-18T11:02:51;35.10;;;16.70;;
38338;SDS011;37117;50.050;19.924;2022-12-18T11:05:27;31.00;;;13.80;;
38338;SDS011;37117;50.050;19.924;2022-12-18T11:07:59;31.20;;;13.90;;
38338;SDS011;37117;50.050;19.924;2022-12-18T11:10:32;32.60;;;13.90;;
38338;SDS011;37117;50.050;19.924;2022-12-18T11:13:16;28.50;;;12.10;;
38338;SDS011;37117;50.050;19.924;2022-12-18T11:15:47;28.20;;;14.40;;
38338;SDS011;37117;50.050;19.924;2022-12-18T11:18:19;32.90;;;14.80;;
38338;SDS011;37117;50.050;19.924;2022-12-18T11:20:51;33.40;;;15.40;;
38338;SDS011;37117;50.050;19.924;2022-12-18T11:23:27;35.60;;;17.60;;
38338;SDS011;37117;50.050;19.924;2022-12-18T11:25:58;34.10;;;16.90;;
38338;SDS011;37117;50.050;19.924;2022-12-18T11:28:34;31.00;;;15.70;;
38338;SDS011;37117;50.050;19.924;2022-12-18T11:34:02;36.90;;;17.50;;
38338;SDS011;37117;50.050;19.924;2022-12-18T11:36:54;30.60;;;15.50;;
38338;SDS011;37117;50.050;19.924;2022-12-18T11:39:27;39.90;;;20.30;;
38338;SDS011;37117;50.050;19.924;2022-12-18T11:42:01;39.90;;;18.10;;
38338;SDS011;37117;50.050;19.924;2022-12-18T11:44:43;41.60;;;18.40;;
38338;SDS011;37117;50.050;19.924;2022-12-18T11:47:18;46.20;;;20.40;;
38338;SDS011;37117;50.050;19.924;2022-12-18T11:49:51;44.10;;;19.80;;
38338;SDS011;37117;50.050;19.924;2022-12-18T11:52:23;47.70;;;21.30;;
38338;SDS011;37117;50.050;19.924;2022-12-18T11:54:56;37.60;;;17.20;;
38338;SDS011;37117;50.050;19.924;2022-12-18T11:57:31;37.70;;;19.00;;
38338;SDS011;37117;50.050;19.924;2022-12-18T12:00:09;41.00;;;20.40;;
38338;SDS011;37117;50.050;19.924;2022-12-18T12:02:53;37.10;;;17.90;;
38338;SDS011;37117;50.050;19.924;2022-12-18T12:05:35;37.20;;;18.50;;
38338;SDS011;37117;50.050;19.924;2022-12-18T12:08:09;43.30;;;20.60;;
38338;SDS011;37117;50.050;19.924;2022-12-18T12:10:45;38.00;;;18.00;;
38338;SDS011;37117;50.050;19.924;2022-12-18T12:13:21;36.50;;;17.80;;
38338;SDS011;37117;50.050;19.924;2022-12-18T12:15:57;39.80;;;16.90;;
38338;SDS011;37117;50.050;19.924;2022-12-18T12:18:32;34.40;;;15.30;;
38338;SDS011;37117;50.050;19.924;2022-12-18T12:21:06;36.80;;;18.20;;
38338;SDS011;37117;50.050;19.924;2022-12-18T12:23:40;41.20;;;18.70;;
38338;SDS011;37117;50.050;19.924;2022-12-18T12:26:14;34.60;;;16.70;;
38338;SDS011;37117;50.050;19.924;2022-12-18T12:28:50;43.20;;;17.60;;
38338;SDS011;37117;50.050;19.924;2022-12-18T12:31:26;32.50;;;16.20;;
38338;SDS011;37117;50.050;19.924;2022-12-18T12:34:00;33.30;;;16.50;;
38338;SDS011;37117;50.050;19.924;2022-12-18T12:36:37;34.70;;;16.80;;
38338;SDS011;37117;50.050;19.924;2022-12-18T12:39:11;34.70;;;17.80;;
38338;SDS011;37117;50.050;19.924;2022-12-18T12:44:32;33.60;;;15.40;;
38338;SDS011;37117;50.050;19.924;2022-12-18T12:47:07;39.50;;;17.90;;
38338;SDS011;37117;50.050;19.924;2022-12-18T12:49:39;36.60;;;16.70;;
38338;SDS011;37117;50.050;19.924;2022-12-18T12:52:23;35.20;;;17.70;;
38338;SDS011;37117;50.050;19.924;2022-12-18T12:54:57;40.50;;;17.30;;
38338;SDS011;37117;50.050;19.924;2022-12-18T12:57:31;31.60;;;16.00;;
38338;SDS011;37117;50.050;19.924;2022-12-18T13:00:07;37.70;;;18.00;;
38338;SDS011;37117;50.050;19.924;2022-12-18T13:02:42;29.10;;;15.00;;
38338;SDS011;37117;50.050;19.924;2022-12-18T13:05:16;36.80;;;18.20;;
38338;SDS011;37117;50.050;19.924;2022-12-18T13:07:51;34.60;;;16.10;;
38338;SDS011;37117;50.050;19.924;2022-12-18T13:10:32;39.10;;;18.60;;
38338;SDS011;37117;50.050;19.924;2022-12-18T13:13:05;38.20;;;20.60;;
38338;SDS011;37117;50.050;19.924;2022-12-18T13:15:39;39.90;;;18.00;;
38338;SDS011;37117;50.050;19.924;2022-12-18T13:18:14;36.80;;;15.70;;
38338;SDS011;37117;50.050;19.924;2022-12-18T13:20:46;32.70;;;17.10;;
38338;SDS011;37117;50.050;19.924;2022-12-18T13:23:29;35.90;;;17.40;;
38338;SDS011;37117;50.050;19.924;2022-12-18T13:26:27;37.50;;;17.50;;
38338;SDS011;37117;50.050;19.924;2022-12-18T13:28:57;38.20;;;17.80;;
38338;SDS011;37117;50.050;19.924;2022-12-18T13:34:17;36.00;;;18.10;;
38338;SDS011;37117;50.050;19.924;2022-12-18T13:37:35;36.10;;;17.80;;
38338;SDS011;37117;50.050;19.924;2022-12-18T13:39:49;34.30;;;16.70;;
38338;SDS011;37117;50.050;19.924;2022-12-18T13:45:43;39.70;;;17.30;;
38338;SDS011;37117;50.050;19.924;2022-12-18T13:48:36;34.60;;;16.90;;
38338;SDS011;37117;50.050;19.924;2022-12-18T13:51:08;39.10;;;17.60;;
38338;SDS011;37117;50.050;19.924;2022-12-18T13:53:42;36.60;;;17.90;;
38338;SDS011;37117;50.050;19.924;2022-12-18T13:56:16;36.80;;;20.00;;
38338;SDS011;37117;50.050;19.924;2022-12-18T14:01:33;36.10;;;18.60;;
38338;SDS011;37117;50.050;19.924;2022-12-18T14:04:11;45.30;;;21.40;;
38338;SDS011;37117;50.050;19.924;2022-12-18T14:06:42;41.40;;;21.30;;
38338;SDS011;37117;50.050;19.924;2022-12-18T14:09:15;46.30;;;21.50;;
38338;SDS011;37117;50.050;19.924;2022-12-18T14:11:50;42.50;;;21.60;;
38338;SDS011;37117;50.050;19.924;2022-12-18T14:14:20;47.40;;;27.20;;
38338;SDS011;37117;50.050;19.924;2022-12-18T14:17:02;54.20;;;27.70;;
38338;SDS011;37117;50.050;19.924;2022-12-18T14:19:35;50.10;;;24.70;;
38338;SDS011;37117;50.050;19.924;2022-12-18T14:22:09;49.10;;;24.00;;
38338;SDS011;37117;50.050;19.924;2022-12-18T14:24:42;56.30;;;27.50;;
38338;SDS011;37117;50.050;19.924;2022-12-18T14:27:19;51.80;;;25.80;;
38338;SDS011;37117;50.050;19.924;2022-12-18T14:29:50;52.10;;;26.20;;
38338;SDS011;37117;50.050;19.924;2022-12-18T14:32:22;55.30;;;28.70;;
38338;SDS011;37117;50.050;19.924;2022-12-18T14:34:53;52.40;;;23.50;;
38338;SDS011;37117;50.050;19.924;2022-12-18T14:37:25;51.70;;;27.60;;
38338;SDS011;37117;50.050;19.924;2022-12-18T14:39:57;52.30;;;25.40;;
38338;SDS011;37117;50.050;19.924;2022-12-18T14:42:35;52.10;;;25.80;;
38338;SDS011;37117;50.050;19.924;2022-12-18T14:47:55;63.10;;;30.20;;
38338;SDS011;37117;50.050;19.924;2022-12-18T14:50:25;57.40;;;29.20;;
38338;SDS011;37117;50.050;19.924;2022-12-18T14:52:56;63.80;;;28.80;;
38338;SDS011;37117;50.050;19.924;2022-12-18T14:55:27;54.20;;;27.10;;
38338;SDS011;37117;50.050;19.924;2022-12-18T14:57:58;55.50;;;26.60;;
38338;SDS011;37117;50.050;19.924;2022-12-18T15:00:29;67.40;;;25.50;;
38338;SDS011;37117;50.050;19.924;2022-12-18T15:03:01;61.60;;;29.80;;
38338;SDS011;37117;50.050;19.924;2022-12-18T15:05:32;63.00;;;32.40;;
38338;SDS011;37117;50.050;19.924;2022-12-18T15:10:47;68.50;;;30.50;;